Impacts METAR Board
IDs:

KLAX - Los Angeles Intl, CA, US

Updated at: 1500 UTC 03 Dec 2021
Potential Impact None Slight Moderate High
Time 03/03Z 03/04Z 03/05Z 03/06Z 03/07Z 03/08Z 03/09Z 03/10Z 03/11Z 03/12Z 03/13Z 03/14Z 03/15Z
Temp56 56 57 57 57 57 57 56 56 56 55 56 56
Dewpt51 51 51 51 51 51 51 50 50 50 50 50 50
Altim30.09 30.12 30.12 30.12 30.13 30.12 30.11 30.12 30.11 30.10 30.11 30.12 30.13
VIS9 9 9 8 7 7 7 7 6 5 4 4 4
CIG10 10 11 13 11 11 11 11 11 11 11 11 12
CoverOVCOVCOVCOVCOVCOVCOVCOVCOVCOVCOVCOVCOVC
FltCatMVFRMVFRMVFRMVFRMVFRMVFRMVFRMVFRMVFRMVFRMVFRMVFRMVFR
WX----------------HZHZHZHZHZ
WDir260270320012003203203503502903000
WSpd6 6 3 0 3 0 4 3 3 3 5 5 0
WGst-- -- -- -- -- -- -- -- -- -- -- -- --
Raw hourly METARs
KLAX 030253Z 26006KT 9SM OVC010 13/11 A3009 RMK AO2 SLP190 T01330106 53007
KLAX 030353Z 27006KT 9SM OVC010 13/11 A3012 RMK AO2 SLP197 T01330106
KLAX 030453Z 32003KT 9SM OVC011 14/11 A3012 RMK AO2 SLP199 T01390106
KLAX 030553Z 00000KT 8SM OVC013 14/11 A3012 RMK AO2 SLP200 T01390106 10139 20128 51010
KLAX 030653Z 12003KT 7SM OVC011 14/11 A3013 RMK AO2 SLP201 T01390106
KLAX 030753Z 00000KT 7SM OVC011 14/11 A3012 RMK AO2 SLP199 T01390106 401670122
KLAX 030853Z 32004KT 7SM OVC011 14/11 A3011 RMK AO2 SLP196 T01390106 58004
KLAX 030953Z 32003KT 7SM OVC011 13/10 A3012 RMK AO2 SLP197 T01330100
KLAX 031053Z 35003KT 6SM HZ OVC011 13/10 A3011 RMK AO2 SLP195 T01330100
KLAX 031153Z 35003KT 5SM HZ OVC011 13/10 A3010 RMK AO2 SLP193 T01330100 10144 20128 58003
KLAX 031253Z 29005KT 4SM HZ OVC011 13/10 A3011 RMK AO2 SLP196 T01280100
KLAX 031353Z 30005KT 4SM HZ OVC011 13/10 A3012 RMK AO2 SLP199 T01330100
KLAX 031453Z 00000KT 4SM HZ OVC012 13/10 A3013 RMK AO2 SLP202 T01330100 52009



Page loaded:  15:39 UTC  |   07:39 AM Pacific  |   08:39 AM Mountain  |   09:39 AM Central  |   10:39 AM Eastern

 

ADVISORIES

FORECASTS

FORECASTS

OBSERVATIONS

USER TOOLS

ABOUT US